sensor_id;sensor_type;location;lat;lon;timestamp;P1;durP1;ratioP1;P2;durP2;ratioP2
69207;SDS011;70114;47.690;8.898;2023-06-10T00:02:20;8.13;;;3.60;;
69207;SDS011;70114;47.690;8.898;2023-06-10T00:04:45;8.17;;;3.87;;
69207;SDS011;70114;47.690;8.898;2023-06-10T00:07:11;7.70;;;3.88;;
69207;SDS011;70114;47.690;8.898;2023-06-10T00:09:37;8.33;;;3.80;;
69207;SDS011;70114;47.690;8.898;2023-06-10T00:12:06;7.78;;;4.05;;
69207;SDS011;70114;47.690;8.898;2023-06-10T00:14:37;8.60;;;3.97;;
69207;SDS011;70114;47.690;8.898;2023-06-10T00:17:04;7.72;;;3.95;;
69207;SDS011;70114;47.690;8.898;2023-06-10T00:19:35;7.63;;;4.10;;
69207;SDS011;70114;47.690;8.898;2023-06-10T00:22:01;8.57;;;4.15;;
69207;SDS011;70114;47.690;8.898;2023-06-10T00:24:28;8.98;;;4.25;;
69207;SDS011;70114;47.690;8.898;2023-06-10T00:26:53;7.83;;;4.40;;
69207;SDS011;70114;47.690;8.898;2023-06-10T00:29:18;8.77;;;4.50;;
69207;SDS011;70114;47.690;8.898;2023-06-10T00:31:44;8.30;;;4.60;;
69207;SDS011;70114;47.690;8.898;2023-06-10T00:34:11;9.10;;;4.80;;
69207;SDS011;70114;47.690;8.898;2023-06-10T00:36:37;9.18;;;4.65;;
69207;SDS011;70114;47.690;8.898;2023-06-10T00:39:02;8.23;;;4.23;;
69207;SDS011;70114;47.690;8.898;2023-06-10T00:41:29;8.25;;;4.25;;
69207;SDS011;70114;47.690;8.898;2023-06-10T00:43:55;9.40;;;4.60;;
69207;SDS011;70114;47.690;8.898;2023-06-10T00:46:21;8.57;;;4.83;;
69207;SDS011;70114;47.690;8.898;2023-06-10T00:48:48;7.85;;;4.50;;
69207;SDS011;70114;47.690;8.898;2023-06-10T00:51:15;8.95;;;4.88;;
69207;SDS011;70114;47.690;8.898;2023-06-10T00:53:41;8.98;;;5.13;;
69207;SDS011;70114;47.690;8.898;2023-06-10T00:56:07;8.17;;;4.33;;
69207;SDS011;70114;47.690;8.898;2023-06-10T00:58:33;7.90;;;4.50;;
69207;SDS011;70114;47.690;8.898;2023-06-10T01:01:00;8.10;;;4.53;;
69207;SDS011;70114;47.690;8.898;2023-06-10T01:03:25;8.80;;;4.53;;
69207;SDS011;70114;47.690;8.898;2023-06-10T01:05:53;8.65;;;4.88;;
69207;SDS011;70114;47.690;8.898;2023-06-10T01:11:41;9.23;;;4.88;;
69207;SDS011;70114;47.690;8.898;2023-06-10T01:14:12;8.45;;;5.00;;
69207;SDS011;70114;47.690;8.898;2023-06-10T01:16:39;8.05;;;4.70;;
69207;SDS011;70114;47.690;8.898;2023-06-10T01:19:06;9.55;;;5.38;;
69207;SDS011;70114;47.690;8.898;2023-06-10T01:21:32;9.40;;;5.27;;
69207;SDS011;70114;47.690;8.898;2023-06-10T01:23:58;10.05;;;5.60;;
69207;SDS011;70114;47.690;8.898;2023-06-10T01:26:30;9.30;;;5.33;;
69207;SDS011;70114;47.690;8.898;2023-06-10T01:28:59;8.98;;;5.03;;
69207;SDS011;70114;47.690;8.898;2023-06-10T01:31:52;9.27;;;5.50;;
69207;SDS011;70114;47.690;8.898;2023-06-10T01:34:25;9.50;;;5.60;;
69207;SDS011;70114;47.690;8.898;2023-06-10T01:36:52;9.60;;;5.38;;
69207;SDS011;70114;47.690;8.898;2023-06-10T01:39:21;9.27;;;5.00;;
69207;SDS011;70114;47.690;8.898;2023-06-10T01:41:48;9.30;;;5.20;;
69207;SDS011;70114;47.690;8.898;2023-06-10T01:44:21;8.73;;;5.40;;
69207;SDS011;70114;47.690;8.898;2023-06-10T01:46:47;8.63;;;5.15;;
69207;SDS011;70114;47.690;8.898;2023-06-10T01:49:13;9.27;;;5.63;;
69207;SDS011;70114;47.690;8.898;2023-06-10T01:51:39;10.45;;;5.20;;
69207;SDS011;70114;47.690;8.898;2023-06-10T01:54:04;9.50;;;5.57;;
69207;SDS011;70114;47.690;8.898;2023-06-10T01:56:31;9.63;;;5.75;;
69207;SDS011;70114;47.690;8.898;2023-06-10T01:58:56;9.60;;;5.30;;
69207;SDS011;70114;47.690;8.898;2023-06-10T02:01:24;9.10;;;5.68;;
69207;SDS011;70114;47.690;8.898;2023-06-10T02:03:53;9.70;;;5.38;;
69207;SDS011;70114;47.690;8.898;2023-06-10T02:06:19;8.97;;;4.80;;
69207;SDS011;70114;47.690;8.898;2023-06-10T02:08:44;8.57;;;4.93;;
69207;SDS011;70114;47.690;8.898;2023-06-10T02:11:10;10.20;;;5.33;;
69207;SDS011;70114;47.690;8.898;2023-06-10T02:13:35;8.90;;;5.43;;
69207;SDS011;70114;47.690;8.898;2023-06-10T02:16:01;9.53;;;5.10;;
69207;SDS011;70114;47.690;8.898;2023-06-10T02:18:26;9.27;;;5.63;;
69207;SDS011;70114;47.690;8.898;2023-06-10T02:20:53;8.53;;;5.30;;
69207;SDS011;70114;47.690;8.898;2023-06-10T02:23:19;8.65;;;5.15;;
69207;SDS011;70114;47.690;8.898;2023-06-10T02:25:44;9.18;;;5.60;;
69207;SDS011;70114;47.690;8.898;2023-06-10T02:28:10;9.60;;;5.60;;
69207;SDS011;70114;47.690;8.898;2023-06-10T02:30:36;11.47;;;5.90;;
69207;SDS011;70114;47.690;8.898;2023-06-10T02:33:04;9.63;;;5.88;;
69207;SDS011;70114;47.690;8.898;2023-06-10T02:35:30;10.67;;;5.60;;
69207;SDS011;70114;47.690;8.898;2023-06-10T02:37:55;11.17;;;5.87;;
69207;SDS011;70114;47.690;8.898;2023-06-10T02:40:20;9.90;;;5.65;;
69207;SDS011;70114;47.690;8.898;2023-06-10T02:42:46;10.50;;;5.50;;
69207;SDS011;70114;47.690;8.898;2023-06-10T02:45:11;9.90;;;5.53;;
69207;SDS011;70114;47.690;8.898;2023-06-10T02:47:37;9.97;;;5.60;;
69207;SDS011;70114;47.690;8.898;2023-06-10T02:50:04;8.90;;;5.20;;
69207;SDS011;70114;47.690;8.898;2023-06-10T02:52:29;10.88;;;5.68;;
69207;SDS011;70114;47.690;8.898;2023-06-10T02:54:56;10.20;;;5.90;;
69207;SDS011;70114;47.690;8.898;2023-06-10T02:57:21;9.40;;;5.72;;
69207;SDS011;70114;47.690;8.898;2023-06-10T02:59:47;9.80;;;5.57;;
69207;SDS011;70114;47.690;8.898;2023-06-10T03:02:12;10.40;;;6.17;;
69207;SDS011;70114;47.690;8.898;2023-06-10T03:04:38;9.70;;;5.80;;
69207;SDS011;70114;47.690;8.898;2023-06-10T03:07:03;10.10;;;5.70;;
69207;SDS011;70114;47.690;8.898;2023-06-10T03:09:32;10.25;;;6.05;;
69207;SDS011;70114;47.690;8.898;2023-06-10T03:11:57;10.70;;;5.93;;
69207;SDS011;70114;47.690;8.898;2023-06-10T03:14:23;9.93;;;5.83;;
69207;SDS011;70114;47.690;8.898;2023-06-10T03:16:50;10.20;;;6.00;;
69207;SDS011;70114;47.690;8.898;2023-06-10T03:19:15;10.53;;;5.93;;
69207;SDS011;70114;47.690;8.898;2023-06-10T03:21:43;11.27;;;6.00;;
69207;SDS011;70114;47.690;8.898;2023-06-10T03:24:09;10.05;;;5.85;;
69207;SDS011;70114;47.690;8.898;2023-06-10T03:26:36;11.32;;;6.28;;
69207;SDS011;70114;47.690;8.898;2023-06-10T03:29:01;10.37;;;5.80;;
69207;SDS011;70114;47.690;8.898;2023-06-10T03:31:27;10.43;;;6.28;;
69207;SDS011;70114;47.690;8.898;2023-06-10T03:33:52;10.20;;;5.90;;
69207;SDS011;70114;47.690;8.898;2023-06-10T03:36:18;10.70;;;5.93;;
69207;SDS011;70114;47.690;8.898;2023-06-10T03:38:43;11.47;;;6.23;;
69207;SDS011;70114;47.690;8.898;2023-06-10T03:41:08;10.95;;;6.05;;
69207;SDS011;70114;47.690;8.898;2023-06-10T03:43:34;10.80;;;6.30;;
69207;SDS011;70114;47.690;8.898;2023-06-10T03:46:00;10.85;;;6.05;;
69207;SDS011;70114;47.690;8.898;2023-06-10T03:48:25;10.03;;;6.13;;
69207;SDS011;70114;47.690;8.898;2023-06-10T03:50:51;10.83;;;6.10;;
69207;SDS011;70114;47.690;8.898;2023-06-10T03:53:17;10.13;;;6.05;;
69207;SDS011;70114;47.690;8.898;2023-06-10T03:55:42;10.10;;;5.60;;
69207;SDS011;70114;47.690;8.898;2023-06-10T03:58:07;10.77;;;6.00;;
69207;SDS011;70114;47.690;8.898;2023-06-10T04:00:33;10.60;;;5.87;;
69207;SDS011;70114;47.690;8.898;2023-06-10T04:03:06;9.82;;;5.70;;
69207;SDS011;70114;47.690;8.898;2023-06-10T04:05:34;10.88;;;6.03;;
69207;SDS011;70114;47.690;8.898;2023-06-10T04:07:59;10.35;;;5.85;;
69207;SDS011;70114;47.690;8.898;2023-06-10T04:10:26;10.50;;;5.60;;
69207;SDS011;70114;47.690;8.898;2023-06-10T04:12:52;10.37;;;5.70;;
69207;SDS011;70114;47.690;8.898;2023-06-10T04:15:17;10.00;;;5.60;;
69207;SDS011;70114;47.690;8.898;2023-06-10T04:17:43;10.38;;;5.75;;
69207;SDS011;70114;47.690;8.898;2023-06-10T04:20:08;10.30;;;6.00;;
69207;SDS011;70114;47.690;8.898;2023-06-10T04:22:34;10.13;;;5.45;;
69207;SDS011;70114;47.690;8.898;2023-06-10T04:25:01;9.53;;;5.40;;
69207;SDS011;70114;47.690;8.898;2023-06-10T04:27:28;10.57;;;5.82;;
69207;SDS011;70114;47.690;8.898;2023-06-10T04:29:54;10.02;;;5.97;;
69207;SDS011;70114;47.690;8.898;2023-06-10T04:32:19;10.00;;;5.43;;
69207;SDS011;70114;47.690;8.898;2023-06-10T04:34:45;9.80;;;5.77;;
69207;SDS011;70114;47.690;8.898;2023-06-10T04:37:10;9.37;;;5.63;;
69207;SDS011;70114;47.690;8.898;2023-06-10T04:39:35;9.80;;;5.93;;
69207;SDS011;70114;47.690;8.898;2023-06-10T04:42:01;9.63;;;5.50;;
69207;SDS011;70114;47.690;8.898;2023-06-10T04:44:26;13.07;;;5.90;;
69207;SDS011;70114;47.690;8.898;2023-06-10T04:46:52;9.35;;;5.53;;
69207;SDS011;70114;47.690;8.898;2023-06-10T04:49:17;10.90;;;5.57;;
69207;SDS011;70114;47.690;8.898;2023-06-10T04:51:43;10.80;;;5.90;;
69207;SDS011;70114;47.690;8.898;2023-06-10T04:54:08;9.43;;;5.72;;
69207;SDS011;70114;47.690;8.898;2023-06-10T04:56:34;9.33;;;5.20;;
69207;SDS011;70114;47.690;8.898;2023-06-10T04:58:59;10.33;;;5.73;;
69207;SDS011;70114;47.690;8.898;2023-06-10T05:01:25;10.57;;;6.03;;
69207;SDS011;70114;47.690;8.898;2023-06-10T05:03:51;10.20;;;6.00;;
69207;SDS011;70114;47.690;8.898;2023-06-10T05:06:16;10.02;;;6.10;;
69207;SDS011;70114;47.690;8.898;2023-06-10T05:08:42;9.43;;;5.70;;
69207;SDS011;70114;47.690;8.898;2023-06-10T05:11:07;12.23;;;5.90;;
69207;SDS011;70114;47.690;8.898;2023-06-10T05:13:33;10.77;;;5.93;;
69207;SDS011;70114;47.690;8.898;2023-06-10T05:15:59;10.13;;;5.47;;
69207;SDS011;70114;47.690;8.898;2023-06-10T05:18:24;10.10;;;5.57;;
69207;SDS011;70114;47.690;8.898;2023-06-10T05:20:50;9.43;;;5.53;;
69207;SDS011;70114;47.690;8.898;2023-06-10T05:23:16;9.50;;;5.30;;
69207;SDS011;70114;47.690;8.898;2023-06-10T05:25:41;10.30;;;5.40;;
69207;SDS011;70114;47.690;8.898;2023-06-10T05:28:07;11.50;;;6.00;;
69207;SDS011;70114;47.690;8.898;2023-06-10T05:30:35;9.77;;;5.30;;
69207;SDS011;70114;47.690;8.898;2023-06-10T05:33:01;9.43;;;5.68;;
69207;SDS011;70114;47.690;8.898;2023-06-10T05:35:26;10.23;;;5.80;;
69207;SDS011;70114;47.690;8.898;2023-06-10T05:37:51;10.27;;;5.63;;
69207;SDS011;70114;47.690;8.898;2023-06-10T05:40:17;10.03;;;5.60;;
69207;SDS011;70114;47.690;8.898;2023-06-10T05:42:42;10.10;;;5.80;;
69207;SDS011;70114;47.690;8.898;2023-06-10T05:45:08;10.87;;;5.40;;
69207;SDS011;70114;47.690;8.898;2023-06-10T05:47:33;11.02;;;5.68;;
69207;SDS011;70114;47.690;8.898;2023-06-10T05:49:59;10.80;;;5.57;;
69207;SDS011;70114;47.690;8.898;2023-06-10T05:52:24;11.05;;;6.00;;
69207;SDS011;70114;47.690;8.898;2023-06-10T05:54:51;10.27;;;5.90;;
69207;SDS011;70114;47.690;8.898;2023-06-10T05:57:16;10.50;;;6.03;;
69207;SDS011;70114;47.690;8.898;2023-06-10T05:59:41;10.13;;;5.80;;
69207;SDS011;70114;47.690;8.898;2023-06-10T06:02:07;10.60;;;6.10;;
69207;SDS011;70114;47.690;8.898;2023-06-10T06:04:33;10.37;;;5.93;;
69207;SDS011;70114;47.690;8.898;2023-06-10T06:06:59;10.00;;;6.00;;
69207;SDS011;70114;47.690;8.898;2023-06-10T06:09:24;10.70;;;5.80;;
69207;SDS011;70114;47.690;8.898;2023-06-10T06:11:50;9.90;;;5.87;;
69207;SDS011;70114;47.690;8.898;2023-06-10T06:14:15;11.70;;;5.90;;
69207;SDS011;70114;47.690;8.898;2023-06-10T06:16:40;11.60;;;6.60;;
69207;SDS011;70114;47.690;8.898;2023-06-10T06:19:06;10.93;;;5.93;;
69207;SDS011;70114;47.690;8.898;2023-06-10T06:21:31;10.98;;;6.05;;
69207;SDS011;70114;47.690;8.898;2023-06-10T06:23:56;15.77;;;6.63;;
69207;SDS011;70114;47.690;8.898;2023-06-10T06:26:23;10.77;;;6.45;;
69207;SDS011;70114;47.690;8.898;2023-06-10T06:28:48;11.30;;;5.80;;
69207;SDS011;70114;47.690;8.898;2023-06-10T06:31:13;11.07;;;5.73;;
69207;SDS011;70114;47.690;8.898;2023-06-10T06:33:39;11.13;;;6.13;;
69207;SDS011;70114;47.690;8.898;2023-06-10T06:36:05;11.73;;;5.87;;
69207;SDS011;70114;47.690;8.898;2023-06-10T06:38:30;10.03;;;6.37;;
69207;SDS011;70114;47.690;8.898;2023-06-10T06:40:55;11.73;;;6.90;;
69207;SDS011;70114;47.690;8.898;2023-06-10T06:43:21;11.73;;;6.67;;
69207;SDS011;70114;47.690;8.898;2023-06-10T06:45:46;11.93;;;7.07;;
69207;SDS011;70114;47.690;8.898;2023-06-10T06:48:12;11.70;;;6.53;;
69207;SDS011;70114;47.690;8.898;2023-06-10T06:50:37;12.13;;;6.67;;
69207;SDS011;70114;47.690;8.898;2023-06-10T06:53:03;11.75;;;7.13;;
69207;SDS011;70114;47.690;8.898;2023-06-10T06:55:29;13.80;;;8.67;;
69207;SDS011;70114;47.690;8.898;2023-06-10T06:57:55;13.23;;;7.72;;
69207;SDS011;70114;47.690;8.898;2023-06-10T07:00:20;11.70;;;6.63;;
69207;SDS011;70114;47.690;8.898;2023-06-10T07:02:46;13.70;;;7.93;;
69207;SDS011;70114;47.690;8.898;2023-06-10T07:05:12;11.25;;;6.53;;
69207;SDS011;70114;47.690;8.898;2023-06-10T07:07:37;11.30;;;6.93;;
69207;SDS011;70114;47.690;8.898;2023-06-10T07:10:03;10.83;;;6.47;;
69207;SDS011;70114;47.690;8.898;2023-06-10T07:12:28;11.82;;;7.00;;
69207;SDS011;70114;47.690;8.898;2023-06-10T07:14:54;15.00;;;6.63;;
69207;SDS011;70114;47.690;8.898;2023-06-10T07:17:19;11.47;;;6.90;;
69207;SDS011;70114;47.690;8.898;2023-06-10T07:19:45;12.70;;;7.50;;
69207;SDS011;70114;47.690;8.898;2023-06-10T07:22:11;12.30;;;7.38;;
69207;SDS011;70114;47.690;8.898;2023-06-10T07:24:36;10.83;;;7.07;;
69207;SDS011;70114;47.690;8.898;2023-06-10T07:27:01;12.50;;;6.90;;
69207;SDS011;70114;47.690;8.898;2023-06-10T07:29:27;11.90;;;7.63;;
69207;SDS011;70114;47.690;8.898;2023-06-10T07:31:52;11.67;;;7.27;;
69207;SDS011;70114;47.690;8.898;2023-06-10T07:34:18;11.30;;;7.18;;
69207;SDS011;70114;47.690;8.898;2023-06-10T07:36:43;11.57;;;7.00;;
69207;SDS011;70114;47.690;8.898;2023-06-10T07:39:09;10.77;;;6.80;;
69207;SDS011;70114;47.690;8.898;2023-06-10T07:41:35;11.52;;;7.00;;
69207;SDS011;70114;47.690;8.898;2023-06-10T07:44:00;11.03;;;7.10;;
69207;SDS011;70114;47.690;8.898;2023-06-10T07:46:26;10.40;;;6.60;;
69207;SDS011;70114;47.690;8.898;2023-06-10T07:48:52;11.15;;;6.70;;
69207;SDS011;70114;47.690;8.898;2023-06-10T07:51:18;11.20;;;6.57;;
69207;SDS011;70114;47.690;8.898;2023-06-10T07:53:44;11.23;;;6.73;;
69207;SDS011;70114;47.690;8.898;2023-06-10T07:56:09;10.73;;;6.93;;
69207;SDS011;70114;47.690;8.898;2023-06-10T07:58:35;12.80;;;7.70;;
69207;SDS011;70114;47.690;8.898;2023-06-10T08:01:00;12.30;;;7.40;;
69207;SDS011;70114;47.690;8.898;2023-06-10T08:03:25;10.83;;;6.90;;
69207;SDS011;70114;47.690;8.898;2023-06-10T08:05:51;12.30;;;7.40;;
69207;SDS011;70114;47.690;8.898;2023-06-10T08:08:16;12.60;;;7.40;;
69207;SDS011;70114;47.690;8.898;2023-06-10T08:10:41;11.73;;;7.50;;
69207;SDS011;70114;47.690;8.898;2023-06-10T08:13:07;12.23;;;7.60;;
69207;SDS011;70114;47.690;8.898;2023-06-10T08:15:33;12.23;;;7.40;;
69207;SDS011;70114;47.690;8.898;2023-06-10T08:17:58;11.18;;;7.35;;
69207;SDS011;70114;47.690;8.898;2023-06-10T08:20:24;11.30;;;6.87;;
69207;SDS011;70114;47.690;8.898;2023-06-10T08:22:50;11.52;;;6.80;;
69207;SDS011;70114;47.690;8.898;2023-06-10T08:25:15;12.27;;;7.93;;
69207;SDS011;70114;47.690;8.898;2023-06-10T08:27:40;11.17;;;6.97;;
69207;SDS011;70114;47.690;8.898;2023-06-10T08:30:06;11.47;;;7.43;;
69207;SDS011;70114;47.690;8.898;2023-06-10T08:32:32;11.68;;;7.43;;
69207;SDS011;70114;47.690;8.898;2023-06-10T08:34:58;10.70;;;6.87;;
69207;SDS011;70114;47.690;8.898;2023-06-10T08:37:24;11.50;;;7.35;;
69207;SDS011;70114;47.690;8.898;2023-06-10T08:39:49;11.90;;;7.43;;
69207;SDS011;70114;47.690;8.898;2023-06-10T08:45:04;11.23;;;6.90;;
69207;SDS011;70114;47.690;8.898;2023-06-10T08:47:31;11.25;;;7.40;;
69207;SDS011;70114;47.690;8.898;2023-06-10T08:50:02;11.52;;;6.97;;
69207;SDS011;70114;47.690;8.898;2023-06-10T08:52:29;11.65;;;7.32;;
69207;SDS011;70114;47.690;8.898;2023-06-10T08:55:03;11.83;;;7.30;;
69207;SDS011;70114;47.690;8.898;2023-06-10T08:57:30;9.93;;;6.40;;
69207;SDS011;70114;47.690;8.898;2023-06-10T08:59:56;10.02;;;6.30;;
69207;SDS011;70114;47.690;8.898;2023-06-10T09:02:23;10.95;;;6.88;;
69207;SDS011;70114;47.690;8.898;2023-06-10T09:04:49;11.23;;;7.45;;
69207;SDS011;70114;47.690;8.898;2023-06-10T09:07:16;12.60;;;6.77;;
69207;SDS011;70114;47.690;8.898;2023-06-10T09:09:42;11.93;;;6.90;;
69207;SDS011;70114;47.690;8.898;2023-06-10T09:12:09;14.32;;;7.95;;
69207;SDS011;70114;47.690;8.898;2023-06-10T09:14:35;11.30;;;7.10;;
69207;SDS011;70114;47.690;8.898;2023-06-10T09:17:01;11.60;;;6.90;;
69207;SDS011;70114;47.690;8.898;2023-06-10T09:19:27;11.15;;;7.28;;
69207;SDS011;70114;47.690;8.898;2023-06-10T09:21:53;11.10;;;6.95;;
69207;SDS011;70114;47.690;8.898;2023-06-10T09:24:20;11.83;;;7.47;;
69207;SDS011;70114;47.690;8.898;2023-06-10T09:26:47;9.73;;;6.60;;
69207;SDS011;70114;47.690;8.898;2023-06-10T09:29:12;11.20;;;6.77;;
69207;SDS011;70114;47.690;8.898;2023-06-10T09:31:38;12.23;;;8.03;;
69207;SDS011;70114;47.690;8.898;2023-06-10T09:34:06;13.52;;;7.07;;
69207;SDS011;70114;47.690;8.898;2023-06-10T09:36:33;10.93;;;6.18;;
69207;SDS011;70114;47.690;8.898;2023-06-10T09:39:00;11.17;;;6.60;;
69207;SDS011;70114;47.690;8.898;2023-06-10T09:41:35;11.60;;;7.72;;
69207;SDS011;70114;47.690;8.898;2023-06-10T09:44:01;9.63;;;6.40;;
69207;SDS011;70114;47.690;8.898;2023-06-10T09:46:30;10.82;;;6.60;;
69207;SDS011;70114;47.690;8.898;2023-06-10T09:48:59;10.18;;;6.70;;
69207;SDS011;70114;47.690;8.898;2023-06-10T09:51:25;11.30;;;6.90;;
69207;SDS011;70114;47.690;8.898;2023-06-10T09:53:51;11.90;;;6.97;;
69207;SDS011;70114;47.690;8.898;2023-06-10T09:56:17;11.35;;;6.82;;
69207;SDS011;70114;47.690;8.898;2023-06-10T09:58:42;10.13;;;6.57;;
69207;SDS011;70114;47.690;8.898;2023-06-10T10:01:11;12.45;;;7.47;;
69207;SDS011;70114;47.690;8.898;2023-06-10T10:03:44;10.38;;;6.38;;
69207;SDS011;70114;47.690;8.898;2023-06-10T10:06:11;10.40;;;6.40;;
69207;SDS011;70114;47.690;8.898;2023-06-10T10:08:37;10.37;;;6.40;;
69207;SDS011;70114;47.690;8.898;2023-06-10T10:11:03;9.73;;;6.25;;
69207;SDS011;70114;47.690;8.898;2023-06-10T10:13:28;9.40;;;6.90;;
69207;SDS011;70114;47.690;8.898;2023-06-10T10:15:58;10.07;;;6.15;;
69207;SDS011;70114;47.690;8.898;2023-06-10T10:18:26;11.38;;;6.55;;
69207;SDS011;70114;47.690;8.898;2023-06-10T10:20:55;10.40;;;6.80;;
69207;SDS011;70114;47.690;8.898;2023-06-10T10:23:28;9.43;;;6.30;;
69207;SDS011;70114;47.690;8.898;2023-06-10T10:26:09;10.32;;;6.55;;
69207;SDS011;70114;47.690;8.898;2023-06-10T10:28:43;9.48;;;6.13;;
69207;SDS011;70114;47.690;8.898;2023-06-10T10:31:12;10.52;;;6.45;;
69207;SDS011;70114;47.690;8.898;2023-06-10T10:33:58;11.07;;;6.23;;
69207;SDS011;70114;47.690;8.898;2023-06-10T10:36:24;10.68;;;6.22;;
69207;SDS011;70114;47.690;8.898;2023-06-10T10:38:51;9.73;;;6.35;;
69207;SDS011;70114;47.690;8.898;2023-06-10T10:41:18;9.35;;;6.00;;
69207;SDS011;70114;47.690;8.898;2023-06-10T10:43:44;10.45;;;6.13;;
69207;SDS011;70114;47.690;8.898;2023-06-10T10:46:12;11.03;;;6.23;;
69207;SDS011;70114;47.690;8.898;2023-06-10T10:48:38;8.65;;;5.53;;
69207;SDS011;70114;47.690;8.898;2023-06-10T10:51:06;10.07;;;6.03;;
69207;SDS011;70114;47.690;8.898;2023-06-10T10:53:32;8.75;;;5.55;;
69207;SDS011;70114;47.690;8.898;2023-06-10T10:55:58;10.27;;;6.37;;
69207;SDS011;70114;47.690;8.898;2023-06-10T10:58:25;9.18;;;6.18;;
69207;SDS011;70114;47.690;8.898;2023-06-10T11:00:51;9.88;;;6.22;;
69207;SDS011;70114;47.690;8.898;2023-06-10T11:03:16;8.90;;;5.77;;
69207;SDS011;70114;47.690;8.898;2023-06-10T11:05:43;9.05;;;5.70;;
69207;SDS011;70114;47.690;8.898;2023-06-10T11:08:14;8.80;;;5.80;;
69207;SDS011;70114;47.690;8.898;2023-06-10T11:10:57;8.63;;;5.70;;
69207;SDS011;70114;47.690;8.898;2023-06-10T11:13:23;9.02;;;5.30;;
69207;SDS011;70114;47.690;8.898;2023-06-10T11:15:51;8.77;;;5.63;;
69207;SDS011;70114;47.690;8.898;2023-06-10T11:24:00;8.97;;;6.10;;
69207;SDS011;70114;47.690;8.898;2023-06-10T11:26:14;9.88;;;5.75;;
69207;SDS011;70114;47.690;8.898;2023-06-10T11:28:40;9.15;;;6.00;;
69207;SDS011;70114;47.690;8.898;2023-06-10T11:31:07;9.55;;;6.45;;
69207;SDS011;70114;47.690;8.898;2023-06-10T11:33:33;9.45;;;5.65;;
69207;SDS011;70114;47.690;8.898;2023-06-10T11:36:06;9.33;;;5.37;;
69207;SDS011;70114;47.690;8.898;2023-06-10T11:38:32;8.52;;;5.80;;
69207;SDS011;70114;47.690;8.898;2023-06-10T11:40:58;10.07;;;5.57;;
69207;SDS011;70114;47.690;8.898;2023-06-10T11:43:23;10.00;;;6.10;;
69207;SDS011;70114;47.690;8.898;2023-06-10T11:45:53;9.32;;;5.65;;
69207;SDS011;70114;47.690;8.898;2023-06-10T11:48:20;9.63;;;6.20;;
69207;SDS011;70114;47.690;8.898;2023-06-10T11:50:46;9.17;;;5.70;;
69207;SDS011;70114;47.690;8.898;2023-06-10T11:53:11;8.90;;;5.70;;
69207;SDS011;70114;47.690;8.898;2023-06-10T11:58:05;8.85;;;5.45;;
69207;SDS011;70114;47.690;8.898;2023-06-10T12:00:43;10.00;;;5.75;;
69207;SDS011;70114;47.690;8.898;2023-06-10T12:03:12;8.00;;;5.55;;
69207;SDS011;70114;47.690;8.898;2023-06-10T12:05:38;8.33;;;5.20;;
69207;SDS011;70114;47.690;8.898;2023-06-10T12:08:09;8.48;;;5.35;;
69207;SDS011;70114;47.690;8.898;2023-06-10T12:10:42;8.70;;;5.60;;
69207;SDS011;70114;47.690;8.898;2023-06-10T12:13:11;8.50;;;5.67;;
69207;SDS011;70114;47.690;8.898;2023-06-10T12:15:36;8.90;;;5.35;;
69207;SDS011;70114;47.690;8.898;2023-06-10T12:18:02;8.80;;;5.47;;
69207;SDS011;70114;47.690;8.898;2023-06-10T12:20:31;12.60;;;5.60;;
69207;SDS011;70114;47.690;8.898;2023-06-10T12:22:59;8.25;;;5.45;;
69207;SDS011;70114;47.690;8.898;2023-06-10T12:25:25;8.80;;;5.22;;
69207;SDS011;70114;47.690;8.898;2023-06-10T12:27:53;8.13;;;5.07;;
69207;SDS011;70114;47.690;8.898;2023-06-10T12:30:22;8.43;;;5.15;;
69207;SDS011;70114;47.690;8.898;2023-06-10T12:32:49;8.07;;;5.25;;
69207;SDS011;70114;47.690;8.898;2023-06-10T12:35:19;9.05;;;5.60;;
69207;SDS011;70114;47.690;8.898;2023-06-10T12:37:56;8.80;;;5.53;;
69207;SDS011;70114;47.690;8.898;2023-06-10T12:40:29;8.53;;;5.77;;
69207;SDS011;70114;47.690;8.898;2023-06-10T12:42:56;8.05;;;4.75;;
69207;SDS011;70114;47.690;8.898;2023-06-10T12:45:30;8.02;;;4.97;;
69207;SDS011;70114;47.690;8.898;2023-06-10T12:48:05;8.40;;;5.72;;
69207;SDS011;70114;47.690;8.898;2023-06-10T12:50:37;8.15;;;5.40;;
69207;SDS011;70114;47.690;8.898;2023-06-10T12:53:05;7.50;;;5.10;;
69207;SDS011;70114;47.690;8.898;2023-06-10T12:55:31;9.38;;;5.57;;
69207;SDS011;70114;47.690;8.898;2023-06-10T12:57:57;7.38;;;5.00;;
69207;SDS011;70114;47.690;8.898;2023-06-10T13:00:23;8.15;;;5.38;;
69207;SDS011;70114;47.690;8.898;2023-06-10T13:02:54;8.00;;;4.88;;
69207;SDS011;70114;47.690;8.898;2023-06-10T13:05:20;7.70;;;5.40;;
69207;SDS011;70114;47.690;8.898;2023-06-10T13:07:46;7.60;;;4.63;;
69207;SDS011;70114;47.690;8.898;2023-06-10T13:10:13;7.27;;;5.10;;
69207;SDS011;70114;47.690;8.898;2023-06-10T13:12:39;8.13;;;4.75;;
69207;SDS011;70114;47.690;8.898;2023-06-10T13:15:05;8.20;;;5.35;;
69207;SDS011;70114;47.690;8.898;2023-06-10T13:17:30;7.50;;;5.00;;
69207;SDS011;70114;47.690;8.898;2023-06-10T13:19:56;7.82;;;4.68;;
69207;SDS011;70114;47.690;8.898;2023-06-10T13:22:21;7.90;;;4.63;;
69207;SDS011;70114;47.690;8.898;2023-06-10T13:24:49;7.43;;;4.97;;
69207;SDS011;70114;47.690;8.898;2023-06-10T13:27:14;7.57;;;4.57;;
69207;SDS011;70114;47.690;8.898;2023-06-10T13:29:40;10.07;;;5.33;;
69207;SDS011;70114;47.690;8.898;2023-06-10T13:32:05;7.57;;;4.88;;
69207;SDS011;70114;47.690;8.898;2023-06-10T13:34:31;7.50;;;4.83;;
69207;SDS011;70114;47.690;8.898;2023-06-10T13:36:57;8.10;;;5.22;;
69207;SDS011;70114;47.690;8.898;2023-06-10T13:39:22;7.33;;;4.90;;
69207;SDS011;70114;47.690;8.898;2023-06-10T13:41:48;8.07;;;5.05;;
69207;SDS011;70114;47.690;8.898;2023-06-10T13:44:13;7.63;;;4.50;;
69207;SDS011;70114;47.690;8.898;2023-06-10T13:46:39;7.97;;;5.00;;
69207;SDS011;70114;47.690;8.898;2023-06-10T13:49:05;7.93;;;4.90;;
69207;SDS011;70114;47.690;8.898;2023-06-10T13:51:30;8.57;;;5.30;;
69207;SDS011;70114;47.690;8.898;2023-06-10T13:53:55;7.57;;;5.10;;
69207;SDS011;70114;47.690;8.898;2023-06-10T13:56:22;7.90;;;5.15;;
69207;SDS011;70114;47.690;8.898;2023-06-10T13:58:48;7.47;;;4.68;;
69207;SDS011;70114;47.690;8.898;2023-06-10T14:01:13;7.37;;;4.70;;
69207;SDS011;70114;47.690;8.898;2023-06-10T14:03:39;7.82;;;4.75;;
69207;SDS011;70114;47.690;8.898;2023-06-10T14:06:04;7.70;;;4.33;;
69207;SDS011;70114;47.690;8.898;2023-06-10T14:08:30;8.63;;;5.00;;
69207;SDS011;70114;47.690;8.898;2023-06-10T14:10:55;7.82;;;4.63;;
69207;SDS011;70114;47.690;8.898;2023-06-10T14:13:21;7.67;;;4.97;;
69207;SDS011;70114;47.690;8.898;2023-06-10T14:15:46;6.47;;;4.27;;
69207;SDS011;70114;47.690;8.898;2023-06-10T14:18:12;8.15;;;4.65;;
69207;SDS011;70114;47.690;8.898;2023-06-10T14:20:37;6.73;;;4.30;;
69207;SDS011;70114;47.690;8.898;2023-06-10T14:23:03;8.33;;;4.40;;
69207;SDS011;70114;47.690;8.898;2023-06-10T14:25:28;7.30;;;4.23;;
69207;SDS011;70114;47.690;8.898;2023-06-10T14:27:53;7.17;;;4.60;;
69207;SDS011;70114;47.690;8.898;2023-06-10T14:30:19;7.85;;;3.72;;
69207;SDS011;70114;47.690;8.898;2023-06-10T14:32:44;7.10;;;4.23;;
69207;SDS011;70114;47.690;8.898;2023-06-10T14:35:10;6.57;;;3.57;;
69207;SDS011;70114;47.690;8.898;2023-06-10T14:37:36;7.18;;;3.60;;
69207;SDS011;70114;47.690;8.898;2023-06-10T14:40:02;6.10;;;3.20;;
69207;SDS011;70114;47.690;8.898;2023-06-10T14:42:28;6.63;;;3.80;;
69207;SDS011;70114;47.690;8.898;2023-06-10T14:44:54;5.97;;;3.30;;
69207;SDS011;70114;47.690;8.898;2023-06-10T14:47:19;6.17;;;3.37;;
69207;SDS011;70114;47.690;8.898;2023-06-10T14:49:45;6.40;;;3.47;;
69207;SDS011;70114;47.690;8.898;2023-06-10T14:52:10;6.47;;;3.80;;